Time;durP1;ratioP1;P1;durP2;ratioP2;P2;SDS_P1;SDS_P2;PMS_P1;PMS_P2;Temp;Humidity;BMP_temperature;BMP_pressure;BME280_temperature;BME280_humidity;BME280_pressure;Samples;Min_cycle;Max_cycle;Signal;HPM_P1;HPM_P2
2021/12/08 00:01:19;;;;;;;4.73;2.63;;;;;;;-0.54;100.00;60751.84;5092890;28;20449;-77
2021/12/08 00:03:46;;;;;;;3.50;2.57;;;;;;;-0.52;100.00;60753.44;5093032;28;20504;-78
2021/12/08 00:06:18;;;;;;;3.50;2.70;;;;;;;-1.77;100.00;60627.22;5092756;28;20442;-77
2021/12/08 00:09:00;;;;;;;4.97;2.80;;;;;;;-0.36;100.00;60767.88;5092964;28;20886;-78
2021/12/08 00:14:13;;;;;;;3.70;2.77;;;;;;;-1.47;100.00;60655.94;5092327;28;21056;-78
2021/12/08 00:16:48;;;;;;;4.07;2.53;;;;;;;-0.36;100.00;60767.88;5092806;28;20525;-75
2021/12/08 00:19:21;;;;;;;3.57;2.73;;;;;;;-0.83;100.00;60718.13;5091488;28;21012;-76
2021/12/08 00:21:48;;;;;;;5.50;2.80;;;;;;;-1.00;100.00;60693.69;5092710;28;20446;-76
2021/12/08 00:24:20;;;;;;;6.23;3.17;;;;;;;-0.30;100.00;60774.25;5093205;28;20936;-75
2021/12/08 00:26:49;;;;;;;3.30;2.63;;;;;;;-1.32;100.00;60662.34;5092984;28;20495;-73
2021/12/08 00:29:18;;;;;;;4.97;3.40;;;;;;;-0.29;100.00;60772.78;5092624;28;20566;-77
2021/12/08 00:31:47;;;;;;;3.93;3.03;;;;;;;-0.31;100.00;60775.66;5092187;28;20551;-77
2021/12/08 00:34:15;;;;;;;3.73;2.80;;;;;;;-0.33;100.00;60776.06;5092776;28;20440;-77
2021/12/08 00:36:49;;;;;;;3.07;2.67;;;;;;;-0.23;100.00;60784.16;5092072;28;20487;-76
2021/12/08 00:39:17;;;;;;;5.17;3.73;;;;;;;-1.55;100.00;60640.50;5092618;28;20445;-74
2021/12/08 00:44:29;;;;;;;4.63;3.33;;;;;;;-0.20;100.00;60785.34;5093883;28;20442;-75
2021/12/08 00:47:01;;;;;;;4.37;3.17;;;;;;;-0.27;100.00;60777.41;5091651;28;20445;-77
2021/12/08 00:49:32;;;;;;;6.10;3.63;;;;;;;-0.19;100.00;60785.88;5091476;28;20516;-76
2021/12/08 00:52:17;;;;;;;4.57;2.80;;;;;;;-1.55;100.00;60648.00;5092244;28;20453;-78
2021/12/08 00:54:48;;;;;;;4.77;3.40;;;;;;;-1.19;100.00;60681.09;5091817;28;20525;-76
2021/12/08 00:57:22;;;;;;;4.73;3.27;;;;;;;-1.22;100.00;60675.41;5091801;28;20875;-78
2021/12/08 00:59:49;;;;;;;5.50;3.63;;;;;;;-1.59;100.00;60640.75;5092179;28;20461;-78
2021/12/08 01:02:18;;;;;;;3.43;2.40;;;;;;;-0.24;100.00;60786.09;5091521;28;20811;-76
2021/12/08 01:04:50;;;;;;;4.47;3.07;;;;;;;-0.28;100.00;60776.88;5092094;28;20507;-75
2021/12/08 01:07:18;;;;;;;6.53;3.53;;;;;;;-0.21;100.00;60786.25;5091899;28;20434;-78
2021/12/08 01:09:49;;;;;;;4.57;2.93;;;;;;;-0.22;100.00;60782.72;5091971;28;20523;-78
2021/12/08 01:12:29;;;;;;;5.40;3.30;;;;;;;-0.22;100.00;60782.72;5090568;28;20476;-78
2021/12/08 01:14:57;;;;;;;3.20;2.37;;;;;;;-2.09;100.00;60586.44;5091588;28;20472;-78
2021/12/08 01:17:30;;;;;;;5.33;3.03;;;;;;;-1.03;100.00;60698.03;5092025;28;20446;-76
2021/12/08 01:19:59;;;;;;;5.30;3.63;;;;;;;-0.19;100.00;60788.91;5091394;28;20458;-78
2021/12/08 01:22:27;;;;;;;5.20;3.50;;;;;;;-1.86;100.00;60610.75;5091537;28;20446;-75
2021/12/08 01:25:00;;;;;;;4.17;2.83;;;;;;;-1.99;100.00;60601.47;5091456;28;21009;-76
2021/12/08 01:27:32;;;;;;;5.60;3.53;;;;;;;-0.78;100.00;60723.41;5091893;28;20441;-76
2021/12/08 01:30:01;;;;;;;7.97;4.00;;;;;;;-0.21;100.00;60784.28;5091501;28;21011;-79
2021/12/08 01:32:30;;;;;;;5.97;3.40;;;;;;;-1.43;100.00;60655.16;5091589;28;20446;-77
2021/12/08 01:34:57;;;;;;;6.43;4.20;;;;;;;-1.75;100.00;60624.34;5091227;28;20432;-75
2021/12/08 01:37:28;;;;;;;5.43;3.57;;;;;;;-0.82;100.00;60719.19;5091606;28;20947;-76
2021/12/08 01:39:58;;;;;;;6.90;4.10;;;;;;;-0.10;100.00;60795.41;5091727;28;20562;-77
2021/12/08 01:42:31;;;;;;;8.03;3.90;;;;;;;-0.35;100.00;60771.44;5091361;28;20940;-77
2021/12/08 01:47:46;;;;;;;6.80;4.73;;;;;;;-1.51;100.00;60652.22;5091928;28;20440;-74
2021/12/08 01:50:13;;;;;;;8.87;5.33;;;;;;;-0.22;100.00;60787.72;5091003;28;20988;-78
2021/12/08 01:52:48;;;;;;;8.93;5.30;;;;;;;-0.04;100.00;60806.78;5091116;28;20528;-76
2021/12/08 01:55:18;;;;;;;7.40;4.63;;;;;;;-0.12;100.00;60793.81;5093786;28;20503;-76
2021/12/08 01:57:47;;;;;;;8.00;5.30;;;;;;;-0.08;100.00;60797.53;5099492;28;20499;-76
2021/12/08 02:00:19;;;;;;;7.43;5.00;;;;;;;-0.20;100.00;60790.34;5095514;28;20532;-75
2021/12/08 02:02:46;;;;;;;7.47;5.10;;;;;;;-1.43;100.00;60655.16;5095813;28;20522;-76
2021/12/08 02:05:16;;;;;;;7.80;5.47;;;;;;;-0.90;100.00;60714.25;5095628;28;20440;-77
2021/12/08 02:07:44;;;;;;;10.07;5.87;;;;;;;-0.10;100.00;60795.41;5095349;28;20824;-76
2021/12/08 02:10:12;;;;;;;10.77;5.97;;;;;;;-0.11;100.00;60794.34;5095367;27;20500;-76
2021/12/08 02:12:44;;;;;;;8.37;5.50;;;;;;;-0.04;100.00;60802.28;5095037;28;20441;-76
2021/12/08 02:15:16;;;;;;;11.43;5.73;;;;;;;-0.14;100.00;60796.19;5095072;28;20469;-74
2021/12/08 02:17:45;;;;;;;10.00;6.20;;;;;;;-1.29;100.00;60673.00;5095385;28;20866;-75
2021/12/08 02:20:16;;;;;;;10.63;6.60;;;;;;;0.02;100.00;60803.13;5095270;28;20517;-76
2021/12/08 02:22:45;;;;;;;7.57;4.43;;;;;;;-0.07;100.00;60803.59;5094868;28;20487;-75
2021/12/08 02:25:18;;;;;;;11.60;6.60;;;;;;;-1.39;100.00;60659.94;5093766;28;20438;-77
2021/12/08 02:27:53;;;;;;;12.43;7.00;;;;;;;-0.10;100.00;60795.41;5094601;28;20471;-77
2021/12/08 02:30:28;;;;;;;11.33;6.50;;;;;;;-1.27;100.00;60677.09;5094986;28;20488;-76
2021/12/08 02:46:53;;;;;;;15.67;8.17;;;;;;;-1.65;100.00;60634.94;5094610;28;20440;-73
2021/12/08 02:49:25;;;;;;;9.50;6.23;;;;;;;-1.67;100.00;60635.31;5094240;28;20532;-76
2021/12/08 02:51:56;;;;;;;15.80;8.47;;;;;;;-1.12;100.00;60688.50;5094120;28;20449;-75
2021/12/08 02:54:26;;;;;;;13.20;7.23;;;;;;;0.07;100.00;60815.91;5094127;28;20929;-75
2021/12/08 02:56:55;;;;;;;14.20;8.30;;;;;;;-0.37;100.00;60776.81;5094320;27;21023;-76
2021/12/08 02:59:26;;;;;;;14.10;8.53;;;;;;;-1.71;100.00;60638.56;5094253;28;20948;-76
2021/12/08 03:01:54;;;;;;;16.27;8.23;;;;;;;-0.59;100.00;60751.03;5093826;28;20809;-76
2021/12/08 03:04:25;;;;;;;16.53;9.17;;;;;;;0.08;100.00;60814.50;5094239;28;20443;-77
2021/12/08 03:06:59;;;;;;;17.40;9.03;;;;;;;0.12;100.00;60818.72;5092742;28;20965;-76
2021/12/08 03:09:28;;;;;;;17.97;10.03;;;;;;;0.13;100.00;60822.28;5094102;28;20469;-75
2021/12/08 03:12:01;;;;;;;16.60;8.70;;;;;;;-0.03;100.00;60802.81;5093959;28;20477;-77
2021/12/08 03:14:31;;;;;;;19.40;10.70;;;;;;;0.10;100.00;60821.63;5093371;28;20555;-78
2021/12/08 03:17:03;;;;;;;22.80;10.10;;;;;;;-0.14;100.00;60791.69;5093822;28;20434;-74
2021/12/08 03:19:36;;;;;;;18.60;10.10;;;;;;;0.03;100.00;60809.19;5094225;28;20446;-76
2021/12/08 03:22:10;;;;;;;24.93;11.23;;;;;;;0.06;100.00;60814.88;5093984;27;20495;-78
2021/12/08 03:24:44;;;;;;;23.63;11.83;;;;;;;-1.21;100.00;60681.47;5093805;27;20891;-75
2021/12/08 03:27:16;;;;;;;22.50;11.07;;;;;;;0.07;100.00;60813.41;5093290;28;20460;-77
2021/12/08 03:29:49;;;;;;;17.37;9.27;;;;;;;0.00;100.00;60811.03;5093140;28;20533;-77
2021/12/08 03:32:29;;;;;;;23.20;11.60;;;;;;;0.10;100.00;60816.06;5093335;28;20454;-77
2021/12/08 03:34:56;;;;;;;24.10;11.33;;;;;;;-0.30;100.00;60769.22;5092638;28;20520;-75
2021/12/08 03:37:36;;;;;;;18.53;9.77;;;;;;;-0.22;100.00;60777.72;5093480;28;20445;-76
2021/12/08 03:40:12;;;;;;;23.27;11.43;;;;;;;0.05;100.00;60813.81;5093389;27;20488;-75
2021/12/08 03:42:41;;;;;;;18.33;10.17;;;;;;;-0.01;100.00;60805.47;5093952;28;20444;-76
2021/12/08 03:45:13;;;;;;;23.53;11.13;;;;;;;-1.32;100.00;60674.81;5093497;28;20520;-75
2021/12/08 03:47:43;;;;;;;19.70;10.87;;;;;;;0.07;100.00;60812.88;5093283;28;20951;-75
2021/12/08 03:50:13;;;;;;;21.93;11.37;;;;;;;0.09;100.00;60820.53;5092584;28;20866;-75
2021/12/08 03:52:41;;;;;;;21.70;9.97;;;;;;;0.02;100.00;60808.13;5093585;28;20430;-76
2021/12/08 03:55:14;;;;;;;22.73;10.67;;;;;;;0.15;100.00;60821.91;5093440;27;20877;-75
2021/12/08 03:57:43;;;;;;;21.47;11.50;;;;;;;-2.95;100.00;60496.13;5092938;28;20453;-76
2021/12/08 04:00:18;;;;;;;23.97;11.80;;;;;;;0.15;100.00;60821.34;5092859;28;20438;-76
2021/12/08 04:02:46;;;;;;;23.83;10.83;;;;;;;0.11;100.00;60812.66;5092704;27;20441;-77
2021/12/08 04:05:18;;;;;;;22.23;10.83;;;;;;;-0.05;100.00;60800.72;5092539;28;20940;-77
2021/12/08 04:07:51;;;;;;;26.00;12.63;;;;;;;0.15;100.00;60826.91;5097302;28;20533;-76
2021/12/08 04:10:21;;;;;;;22.30;11.33;;;;;;;-0.19;100.00;60785.88;5092380;28;20581;-76
2021/12/08 04:12:56;;;;;;;21.97;10.33;;;;;;;0.20;100.00;60829.72;5092773;28;20434;-75
2021/12/08 04:15:26;;;;;;;19.50;11.43;;;;;;;-1.14;100.00;60686.38;5091423;28;20842;-75
2021/12/08 04:18:01;;;;;;;24.70;12.80;;;;;;;-0.96;100.00;60710.41;5092612;28;20488;-80
2021/12/08 04:20:33;;;;;;;23.80;12.17;;;;;;;-1.13;100.00;60692.44;5092499;28;21019;-75
2021/12/08 04:23:02;;;;;;;21.77;11.27;;;;;;;0.15;100.00;60821.91;5092193;28;20453;-76
2021/12/08 04:25:44;;;;;;;23.80;12.57;;;;;;;0.24;100.00;60833.94;5092540;28;20839;-77
2021/12/08 04:28:14;;;;;;;22.70;11.87;;;;;;;-1.27;100.00;60672.09;5092680;28;20518;-78
2021/12/08 04:30:47;;;;;;;21.43;11.17;;;;;;;0.33;100.00;60840.97;5092463;28;20883;-78
2021/12/08 04:33:16;;;;;;;22.13;12.17;;;;;;;0.21;100.00;60830.75;5092687;28;20434;-76
2021/12/08 04:35:46;;;;;;;19.43;9.67;;;;;;;-0.21;100.00;60783.75;5093869;28;20445;-76
2021/12/08 04:38:20;;;;;;;22.47;11.37;;;;;;;0.27;100.00;60837.13;5092664;28;20438;-77
2021/12/08 04:41:02;;;;;;;19.90;10.63;;;;;;;0.30;100.00;60842.81;5093001;28;20560;-77
2021/12/08 04:43:37;;;;;;;28.20;12.27;;;;;;;0.31;100.00;60838.84;5092201;28;20829;-76
2021/12/08 04:46:14;;;;;;;20.67;11.33;;;;;;;0.27;100.00;60834.59;5092071;28;20958;-79
2021/12/08 04:49:03;;;;;;;21.80;11.37;;;;;;;0.27;100.00;60834.59;5092280;28;21013;-76
2021/12/08 05:03:05;;;;;;;23.83;11.37;;;;;;;0.25;100.00;60827.47;5092196;28;20750;-77
2021/12/08 05:05:59;;;;;;;24.50;11.83;;;;;;;-1.39;100.00;60654.94;5092217;28;20442;-74
2021/12/08 05:08:40;;;;;;;20.63;10.70;;;;;;;0.22;100.00;60831.28;5093533;27;20873;-76
2021/12/08 05:11:14;;;;;;;23.97;11.53;;;;;;;0.21;100.00;60828.25;5090393;28;20473;-74
2021/12/08 05:13:45;;;;;;;25.37;12.40;;;;;;;0.25;100.00;60831.94;5090143;28;20434;-76
2021/12/08 05:16:15;;;;;;;25.70;12.63;;;;;;;0.19;100.00;60826.13;5091687;28;20449;-77
2021/12/08 05:19:01;;;;;;;27.83;12.93;;;;;;;0.20;100.00;60829.72;5091398;28;20437;-78
2021/12/08 05:21:40;;;;;;;21.93;12.03;;;;;;;0.21;100.00;60828.25;5091416;28;20446;-75
2021/12/08 05:24:11;;;;;;;22.93;10.37;;;;;;;0.31;100.00;60838.84;5092670;28;20506;-77
2021/12/08 05:26:43;;;;;;;24.53;12.37;;;;;;;-0.32;100.00;60772.13;5092113;28;20438;-77
2021/12/08 05:29:19;;;;;;;21.50;11.50;;;;;;;0.23;100.00;60830.38;5092092;28;20952;-78
2021/12/08 05:31:49;;;;;;;28.00;13.33;;;;;;;-0.98;100.00;60708.31;5091618;28;20477;-75
2021/12/08 05:34:17;;;;;;;23.90;10.37;;;;;;;0.22;100.00;60831.81;5091845;28;20884;-77
2021/12/08 05:36:48;;;;;;;22.87;11.90;;;;;;;-1.54;100.00;60649.06;5092123;28;20442;-77
2021/12/08 05:39:22;;;;;;;22.37;11.90;;;;;;;-0.24;100.00;60785.59;5092449;28;20434;-76
2021/12/08 05:41:54;;;;;;;24.53;10.53;;;;;;;-0.63;100.00;60739.81;5090758;28;20480;-78
2021/12/08 05:44:24;;;;;;;20.90;11.00;;;;;;;0.10;100.00;60821.63;5092387;28;20429;-76
2021/12/08 05:46:54;;;;;;;21.63;10.87;;;;;;;-0.94;100.00;60705.03;5091521;28;20498;-75
2021/12/08 05:49:25;;;;;;;25.07;11.40;;;;;;;0.17;100.00;60824.00;5092592;28;20438;-79
2021/12/08 05:51:56;;;;;;;25.53;10.53;;;;;;;-0.56;100.00;60741.72;5092230;28;20485;-77
2021/12/08 05:54:31;;;;;;;26.70;10.90;;;;;;;-1.39;100.00;60659.94;5091726;28;20444;-77
2021/12/08 05:57:02;;;;;;;23.93;12.63;;;;;;;-0.25;100.00;60789.53;5092422;28;20499;-76
2021/12/08 05:59:39;;;;;;;25.07;11.43;;;;;;;0.03;100.00;60811.69;5092537;28;20492;-77
2021/12/08 06:02:13;;;;;;;24.20;12.43;;;;;;;0.17;100.00;60823.47;5092667;28;20851;-77
2021/12/08 06:04:43;;;;;;;29.07;13.57;;;;;;;-0.80;100.00;60726.31;5091140;28;20518;-76
2021/12/08 06:07:11;;;;;;;22.67;11.57;;;;;;;-0.04;100.00;60801.78;5091800;28;20433;-76
2021/12/08 06:09:44;;;;;;;21.93;9.60;;;;;;;0.09;100.00;60815.00;5094202;28;20441;-78
2021/12/08 06:12:12;;;;;;;32.27;13.43;;;;;;;-1.22;100.00;60672.91;5094247;28;20484;-77
2021/12/08 06:14:42;;;;;;;25.00;11.87;;;;;;;-1.60;100.00;60637.72;5093329;28;21046;-78
2021/12/08 06:17:14;;;;;;;24.73;11.60;;;;;;;0.16;100.00;60822.97;5096088;28;20453;-77
2021/12/08 06:19:44;;;;;;;23.53;11.37;;;;;;;-1.57;100.00;60640.38;5094865;28;20438;-77
2021/12/08 06:22:18;;;;;;;28.57;14.33;;;;;;;-0.01;100.00;60804.94;5093458;28;20458;-76
2021/12/08 06:24:47;;;;;;;26.30;12.70;;;;;;;-0.16;100.00;60789.56;5093400;28;20483;-75
2021/12/08 06:27:15;;;;;;;27.73;12.50;;;;;;;0.11;100.00;60812.13;5093730;28;20819;-76
2021/12/08 06:29:46;;;;;;;23.50;11.37;;;;;;;0.21;100.00;60827.72;5093984;28;21025;-76
2021/12/08 06:32:15;;;;;;;25.07;11.77;;;;;;;0.27;100.00;60839.63;5093793;28;20899;-75
2021/12/08 06:34:47;;;;;;;26.77;13.57;;;;;;;0.27;100.00;60834.59;5093301;28;20434;-75
2021/12/08 06:37:21;;;;;;;33.03;13.83;;;;;;;0.36;100.00;60849.16;5093531;28;20524;-76
2021/12/08 06:39:55;;;;;;;26.73;13.80;;;;;;;-0.25;100.00;60785.06;5093741;28;20499;-76
2021/12/08 06:42:28;;;;;;;28.20;13.13;;;;;;;0.38;100.00;60851.28;5096120;28;20936;-78
2021/12/08 06:45:00;;;;;;;29.63;13.07;;;;;;;0.35;100.00;60843.09;5096739;27;20445;-77
2021/12/08 06:47:31;;;;;;;27.33;13.67;;;;;;;0.38;100.00;60846.28;5095341;28;20503;-76
2021/12/08 06:50:07;;;;;;;28.40;14.30;;;;;;;0.47;100.00;60855.81;5095948;28;21001;-77
2021/12/08 06:52:45;;;;;;;31.83;14.37;;;;;;;-0.75;100.00;60726.59;5094370;28;20487;-77
2021/12/08 06:55:19;;;;;;;25.17;13.20;;;;;;;0.53;100.00;60866.63;5095017;28;20520;-75
2021/12/08 06:57:49;;;;;;;31.23;14.60;;;;;;;0.51;100.00;60860.03;5094437;28;20494;-76
2021/12/08 07:00:35;;;;;;;31.03;15.47;;;;;;;-0.69;100.00;60727.94;5095640;28;20438;-77
2021/12/08 07:03:21;;;;;;;25.47;13.57;;;;;;;0.49;100.00;60857.94;5095138;28;20426;-76
2021/12/08 07:08:30;;;;;;;24.23;12.67;;;;;;;0.34;100.00;60839.53;5093277;28;20445;-77
2021/12/08 07:10:58;;;;;;;29.60;13.80;;;;;;;-0.89;100.00;60717.31;5095246;28;20480;-77
2021/12/08 07:13:28;;;;;;;23.60;12.37;;;;;;;0.25;100.00;60827.47;5094911;28;20487;-78
2021/12/08 07:16:07;;;;;;;23.90;12.03;;;;;;;0.37;100.00;60845.22;5095026;28;20437;-78
2021/12/08 07:18:42;;;;;;;24.47;12.63;;;;;;;0.50;100.00;60859.00;5095377;28;20449;-75
2021/12/08 07:21:12;;;;;;;27.40;12.57;;;;;;;-0.69;100.00;60722.94;5095204;28;20425;-77
2021/12/08 07:23:43;;;;;;;30.30;14.50;;;;;;;0.59;100.00;60868.53;5095118;28;20434;-75
2021/12/08 07:26:14;;;;;;;24.00;12.53;;;;;;;0.61;100.00;60877.63;5093674;28;20460;-77
2021/12/08 07:28:44;;;;;;;21.73;11.37;;;;;;;-0.13;100.00;60792.22;5095298;28;20475;-77
2021/12/08 07:31:28;;;;;;;25.07;11.17;;;;;;;0.66;100.00;60878.47;5094221;28;20531;-76
2021/12/08 07:34:05;;;;;;;19.97;10.83;;;;;;;0.61;100.00;60870.66;5094495;28;20426;-75
2021/12/08 07:36:38;;;;;;;27.27;12.30;;;;;;;0.41;100.00;60846.94;5094687;28;20422;-78
2021/12/08 07:39:09;;;;;;;20.50;11.57;;;;;;;-0.89;100.00;60717.84;5093996;28;20495;-77
2021/12/08 07:41:45;;;;;;;24.50;12.43;;;;;;;0.63;100.00;60875.28;5094164;28;20495;-76
2021/12/08 07:44:16;;;;;;;30.87;13.53;;;;;;;0.61;100.00;60870.66;5093330;28;20902;-74
2021/12/08 07:46:50;;;;;;;25.77;13.00;;;;;;;0.64;100.00;60871.31;5093910;27;20888;-80
2021/12/08 07:49:21;;;;;;;21.43;11.77;;;;;;;0.66;100.00;60873.44;5093985;27;20458;-74
2021/12/08 07:51:53;;;;;;;21.40;10.90;;;;;;;-0.87;100.00;60724.94;5093780;28;20477;-76
2021/12/08 07:54:21;;;;;;;25.07;12.30;;;;;;;0.32;100.00;60844.94;5092942;28;20943;-75
2021/12/08 07:56:51;;;;;;;19.03;11.10;;;;;;;-0.56;100.00;60746.72;5093809;28;20438;-76
2021/12/08 07:59:27;;;;;;;23.50;11.13;;;;;;;0.61;100.00;60870.66;5093740;27;20453;-77
2021/12/08 08:02:06;;;;;;;23.40;11.33;;;;;;;0.34;100.00;60846.50;5093215;28;20449;-75
2021/12/08 08:04:35;;;;;;;20.17;9.70;;;;;;;-0.40;100.00;60769.16;5093697;28;20863;-76
2021/12/08 08:07:04;;;;;;;20.77;11.50;;;;;;;0.56;100.00;60867.31;5093459;28;20527;-77
2021/12/08 08:09:36;;;;;;;21.07;10.80;;;;;;;0.34;100.00;60842.03;5093769;28;20499;-75
2021/12/08 08:12:11;;;;;;;18.77;10.47;;;;;;;0.58;100.00;60867.47;5093497;28;20988;-76
2021/12/08 08:14:43;;;;;;;25.17;10.43;;;;;;;0.59;100.00;60868.00;5093352;28;21056;-77
2021/12/08 08:17:16;;;;;;;20.10;10.20;;;;;;;0.31;100.00;60838.31;5093619;28;20442;-77
2021/12/08 08:19:50;;;;;;;17.90;9.10;;;;;;;0.03;100.00;60814.19;5093899;28;20492;-76
2021/12/08 08:22:26;;;;;;;19.77;9.60;;;;;;;0.71;100.00;60881.25;5093825;28;20483;-77
2021/12/08 08:24:56;;;;;;;18.60;9.70;;;;;;;-0.50;100.00;60753.06;5096059;28;20441;-75
2021/12/08 08:27:24;;;;;;;19.67;10.93;;;;;;;0.76;100.00;60883.50;5095007;28;20441;-76
2021/12/08 08:29:53;;;;;;;20.87;10.60;;;;;;;-0.30;100.00;60776.75;5093395;28;20840;-75
2021/12/08 08:32:29;;;;;;;25.60;11.30;;;;;;;0.75;100.00;60884.94;5093018;28;20931;-75
2021/12/08 08:34:59;;;;;;;22.13;10.70;;;;;;;0.60;100.00;60869.59;5093129;28;20437;-76
2021/12/08 08:37:29;;;;;;;22.53;11.17;;;;;;;0.50;100.00;60858.47;5093034;28;20441;-78
2021/12/08 08:40:01;;;;;;;23.80;10.00;;;;;;;0.85;100.00;60896.09;5093855;28;20453;-76
2021/12/08 08:42:35;;;;;;;22.67;10.33;;;;;;;0.34;100.00;60847.03;5093738;28;20890;-78
2021/12/08 08:45:08;;;;;;;17.93;9.30;;;;;;;0.84;100.00;60895.03;5093044;28;20432;-78
2021/12/08 08:47:47;;;;;;;21.63;10.13;;;;;;;0.90;100.00;60900.88;5092727;28;20499;-76
2021/12/08 08:50:24;;;;;;;22.70;11.57;;;;;;;1.04;100.00;60912.66;5092994;28;20440;-76
2021/12/08 08:52:56;;;;;;;20.50;11.60;;;;;;;1.04;100.00;60917.69;5093203;28;20484;-76
2021/12/08 08:55:28;;;;;;;21.93;11.13;;;;;;;1.08;100.00;60924.97;5091617;28;20444;-76
2021/12/08 08:57:56;;;;;;;23.10;10.50;;;;;;;1.22;100.00;60939.28;5092497;27;20457;-79
2021/12/08 09:00:30;;;;;;;22.17;11.10;;;;;;;1.33;100.00;60946.47;5092416;28;20441;-75
2021/12/08 09:03:11;;;;;;;23.80;12.13;;;;;;;0.12;100.00;60823.19;5092415;28;20441;-77
2021/12/08 09:05:43;;;;;;;22.33;10.47;;;;;;;1.37;100.00;60950.72;5092148;28;20507;-78
2021/12/08 09:08:14;;;;;;;19.67;11.07;;;;;;;1.34;100.00;60941.97;5092597;28;20540;-76
2021/12/08 09:10:50;;;;;;;19.40;9.57;;;;;;;1.35;100.00;60948.59;5092524;28;20457;-77
2021/12/08 09:13:22;;;;;;;21.30;10.57;;;;;;;0.52;100.00;60861.13;5092856;28;20484;-78
2021/12/08 09:15:59;;;;;;;20.53;10.17;;;;;;;0.75;100.00;60889.97;5091724;28;20482;-77
2021/12/08 09:18:49;;;;;;;18.33;9.63;;;;;;;1.48;100.00;60964.38;5092036;28;20928;-78
2021/12/08 09:21:26;;;;;;;22.90;10.53;;;;;;;1.62;100.00;60976.72;5092138;28;20437;-77
2021/12/08 09:24:03;;;;;;;20.97;10.00;;;;;;;1.41;100.00;60949.41;5092319;28;20440;-78
2021/12/08 09:26:36;;;;;;;21.93;11.20;;;;;;;1.81;100.00;60999.41;5091137;28;20490;-77
2021/12/08 09:29:12;;;;;;;20.27;10.00;;;;;;;1.71;100.00;60986.28;5092680;28;20434;-77
2021/12/08 09:31:42;;;;;;;21.07;11.27;;;;;;;1.00;100.00;60908.97;5091919;28;20643;-76
2021/12/08 09:34:21;;;;;;;18.83;9.93;;;;;;;1.55;100.00;60971.81;5092377;28;20511;-76
2021/12/08 09:36:52;;;;;;;19.07;10.23;;;;;;;1.27;100.00;60934.56;5091986;28;20521;-76
2021/12/08 09:39:24;;;;;;;22.40;11.40;;;;;;;1.94;100.00;61010.69;5092113;28;20924;-76
2021/12/08 09:42:03;;;;;;;19.80;10.90;;;;;;;2.11;100.00;61028.19;5092135;28;20453;-78
2021/12/08 09:44:34;;;;;;;20.13;10.83;;;;;;;2.05;100.00;61017.34;5090837;28;20444;-77
2021/12/08 09:47:04;;;;;;;19.27;11.10;;;;;;;2.13;100.00;61028.34;5091988;28;20494;-78
2021/12/08 09:49:34;;;;;;;20.57;10.97;;;;;;;2.09;100.00;61026.59;5092481;28;20953;-75
2021/12/08 09:52:05;;;;;;;20.93;12.03;;;;;;;2.19;100.00;61031.66;5092201;28;20466;-76
2021/12/08 09:54:34;;;;;;;20.70;11.27;;;;;;;1.28;100.00;60941.16;5091438;28;20476;-77
2021/12/08 09:57:06;;;;;;;22.43;12.67;;;;;;;2.65;100.00;61085.00;5091503;28;20487;-78
2021/12/08 09:59:37;;;;;;;20.67;12.00;;;;;;;2.72;100.00;61092.97;5090708;28;20454;-77
2021/12/08 10:02:08;;;;;;;25.40;12.50;;;;;;;2.76;100.00;61097.22;5091502;28;20970;-75
2021/12/08 10:04:40;;;;;;;22.77;12.10;;;;;;;2.75;100.00;61098.16;5091715;28;20465;-77
2021/12/08 10:07:10;;;;;;;24.27;13.07;;;;;;;2.10;100.00;61027.66;5092032;28;20783;-76
2021/12/08 10:09:41;;;;;;;22.03;12.50;;;;;;;2.65;100.00;61085.00;5092420;28;20500;-75
2021/12/08 10:12:12;;;;;;;22.17;12.60;;;;;;;2.45;100.00;61069.88;5092208;28;20505;-76
2021/12/08 10:14:40;;;;;;;26.13;13.00;;;;;;;2.77;100.00;61097.75;5091795;28;20481;-75
2021/12/08 10:17:09;;;;;;;19.80;11.93;;;;;;;2.74;100.00;61094.59;5093483;28;20498;-76
2021/12/08 10:19:40;;;;;;;23.57;13.10;;;;;;;2.75;100.00;61088.09;5095181;28;20490;-77
2021/12/08 10:22:17;;;;;;;21.73;12.57;;;;;;;2.85;100.00;61108.78;5095987;28;20511;-78
2021/12/08 10:25:06;;;;;;;21.60;11.67;;;;;;;2.88;100.00;61109.47;5095857;28;20521;-78
2021/12/08 10:27:34;;;;;;;21.07;11.80;;;;;;;2.58;100.00;61077.59;5095908;28;20536;-76
2021/12/08 10:30:23;;;;;;;22.20;12.70;;;;;;;2.92;100.00;61114.22;5095291;28;20438;-78
2021/12/08 10:32:53;;;;;;;21.97;11.77;;;;;;;2.36;100.00;61055.28;5095904;28;20481;-75
2021/12/08 10:35:47;;;;;;;19.93;11.73;;;;;;;2.96;100.00;61117.97;5097246;28;20523;-76
2021/12/08 10:38:16;;;;;;;19.50;11.07;;;;;;;2.60;100.00;61082.22;5098310;28;20453;-76
2021/12/08 10:41:04;;;;;;;21.33;11.40;;;;;;;2.70;100.00;61090.84;5095894;28;20495;-76
2021/12/08 10:43:32;;;;;;;21.80;11.80;;;;;;;3.61;100.00;61187.06;5096212;28;20453;-77
2021/12/08 10:46:01;;;;;;;22.83;12.73;;;;;;;3.80;100.00;61209.78;5094657;28;21045;-76
2021/12/08 10:48:34;;;;;;;20.87;12.60;;;;;;;3.98;100.00;61226.44;5094788;28;20522;-77
2021/12/08 10:56:39;;;;;;;22.10;11.83;;;;;;;4.16;100.00;61243.06;5094919;28;20445;-76
2021/12/08 10:59:05;;;;;;;19.57;10.87;;;;;;;5.02;100.00;61336.06;5095042;28;20438;-78
2021/12/08 11:01:36;;;;;;;18.57;10.73;;;;;;;5.16;100.00;61345.91;5094766;28;20494;-77
2021/12/08 11:04:05;;;;;;;16.60;10.73;;;;;;;6.95;100.00;61545.84;5094727;28;20504;-77
2021/12/08 11:06:34;;;;;;;19.77;11.90;;;;;;;8.56;100.00;61708.63;5094177;28;20510;-77
2021/12/08 11:09:02;;;;;;;18.67;10.53;;;;;;;9.16;100.00;61765.69;5094734;28;20454;-77
2021/12/08 11:11:32;;;;;;;18.00;10.63;;;;;;;9.53;100.00;61814.91;5094711;28;20449;-77
2021/12/08 11:14:01;;;;;;;15.30;10.33;;;;;;;10.26;100.00;61892.56;5094381;28;20868;-77
2021/12/08 11:16:30;;;;;;;16.43;10.13;;;;;;;10.46;100.00;61911.44;5095180;28;20495;-76
2021/12/08 11:19:01;;;;;;;15.03;10.50;;;;;;;11.02;100.00;61973.44;5094363;28;20499;-76
2021/12/08 11:21:36;;;;;;;20.23;10.60;;;;;;;11.15;100.00;61991.94;5094990;28;20442;-75
2021/12/08 11:24:06;;;;;;;16.50;10.40;;;;;;;10.99;100.00;61970.75;5094273;28;20958;-77
2021/12/08 11:26:37;;;;;;;15.60;10.00;;;;;;;11.03;100.00;61979.59;5095233;28;20449;-76
2021/12/08 11:29:10;;;;;;;18.17;10.63;;;;;;;10.87;100.00;61952.78;5093183;28;20438;-77
2021/12/08 11:31:40;;;;;;;20.33;12.17;;;;;;;10.75;100.00;61945.03;5093863;28;20511;-76
2021/12/08 11:34:15;;;;;;;16.27;11.00;;;;;;;10.72;100.00;61944.38;5093862;28;20640;-78
2021/12/08 11:36:44;;;;;;;16.57;10.67;;;;;;;11.19;100.00;61991.13;5094586;28;20517;-76
2021/12/08 11:39:18;;;;;;;14.70;9.57;;;;;;;11.11;100.00;61987.63;5094238;28;20200;-78
2021/12/08 11:41:48;;;;;;;15.57;10.07;;;;;;;11.27;100.00;62002.25;5094273;28;20694;-78
2021/12/08 11:44:19;;;;;;;18.07;10.37;;;;;;;11.40;100.00;62014.16;5092836;28;20199;-76
2021/12/08 11:46:50;;;;;;;20.23;11.17;;;;;;;11.72;100.00;62047.94;5094054;28;20438;-77
2021/12/08 11:49:18;;;;;;;16.83;9.83;;;;;;;11.61;100.00;62041.78;5093729;28;20203;-77
2021/12/08 11:52:15;;;;;;;16.30;9.80;;;;;;;11.43;100.00;62014.81;5094516;28;20445;-79
2021/12/08 11:55:00;;;;;;;18.17;10.70;;;;;;;11.13;100.00;61987.75;5093238;28;20207;-76
2021/12/08 11:57:35;;;;;;;15.50;10.83;;;;;;;11.44;100.00;62023.00;5094281;28;20658;-77
2021/12/08 12:00:10;;;;;;;14.80;9.57;;;;;;;10.75;100.00;61945.03;5093834;28;20203;-77
2021/12/08 12:02:41;;;;;;;13.67;9.37;;;;;;;11.26;100.00;62003.72;5093604;28;20199;-76
2021/12/08 12:05:12;;;;;;;15.60;10.00;;;;;;;11.66;100.00;62041.50;5093416;28;20196;-76
2021/12/08 12:07:39;;;;;;;16.83;9.97;;;;;;;11.14;100.00;61983.19;5093578;28;20231;-77
2021/12/08 12:10:10;;;;;;;15.33;10.10;;;;;;;10.46;100.00;61913.97;5093320;28;20453;-79
2021/12/08 12:12:39;;;;;;;14.07;10.17;;;;;;;9.16;100.00;61782.94;5093337;28;20257;-78
2021/12/08 12:15:15;;;;;;;13.93;9.50;;;;;;;9.30;100.00;61795.94;5093150;28;20568;-77
2021/12/08 12:17:43;;;;;;;17.20;10.00;;;;;;;8.21;100.00;61679.34;5093380;28;20487;-78
2021/12/08 12:20:17;;;;;;;16.23;10.53;;;;;;;7.35;100.00;61588.56;5093215;28;20466;-77
2021/12/08 12:23:01;;;;;;;20.80;11.17;;;;;;;6.16;100.00;61459.03;5093203;28;20482;-78